createdAt,value
2018-08-25T00:00:21.617Z,5.80
2018-08-25T00:02:50.330Z,6.40
2018-08-25T00:05:19.141Z,6.60
2018-08-25T00:07:47.864Z,6.60
2018-08-25T00:10:16.991Z,5.90
2018-08-25T00:13:03.638Z,6.40
2018-08-25T00:15:32.474Z,6.67
2018-08-25T00:18:18.387Z,6.13
2018-08-25T00:20:47.284Z,6.30
2018-08-25T00:23:16.002Z,6.50
2018-08-25T00:25:44.695Z,6.50
2018-08-25T00:28:13.357Z,6.37
2018-08-25T00:30:47.204Z,6.77
2018-08-25T00:33:15.916Z,6.47
2018-08-25T00:35:44.630Z,6.67
2018-08-25T00:38:13.338Z,6.23
2018-08-25T00:40:42.131Z,6.60
2018-08-25T00:43:10.874Z,6.53
2018-08-25T00:45:39.700Z,6.67
2018-08-25T00:48:08.504Z,6.70
2018-08-25T00:50:37.417Z,7.10
2018-08-25T00:53:06.192Z,7.00
2018-08-25T00:55:34.936Z,6.97
2018-08-25T00:58:03.695Z,6.87
2018-08-25T01:00:32.413Z,6.73
2018-08-25T01:03:01.162Z,6.80
2018-08-25T01:05:30.024Z,6.47
2018-08-25T01:07:58.744Z,6.63
2018-08-25T01:10:27.433Z,6.80
2018-08-25T01:12:56.195Z,6.60
2018-08-25T01:15:24.887Z,7.53
2018-08-25T01:17:53.539Z,7.37
2018-08-25T01:20:22.263Z,7.53
2018-08-25T01:22:51.020Z,7.10
2018-08-25T01:25:19.704Z,6.97
2018-08-25T01:27:48.424Z,7.17
2018-08-25T01:30:17.194Z,7.17
2018-08-25T01:32:45.863Z,7.10
2018-08-25T01:35:14.558Z,7.47
2018-08-25T01:37:43.313Z,7.43
2018-08-25T01:40:12.006Z,8.20
2018-08-25T01:42:41.176Z,7.63
2018-08-25T01:45:09.869Z,7.77
2018-08-25T01:47:38.820Z,7.87
2018-08-25T01:50:07.521Z,8.03
2018-08-25T01:52:36.229Z,8.10
2018-08-25T01:55:05.011Z,8.60
2018-08-25T01:57:33.863Z,8.30
2018-08-25T02:00:03.831Z,8.67
2018-08-25T02:02:32.564Z,8.23
2018-08-25T02:05:01.327Z,8.53
2018-08-25T02:07:30.147Z,8.37
2018-08-25T02:09:58.858Z,8.23
2018-08-25T02:12:27.552Z,8.90
2018-08-25T02:14:56.286Z,8.40
2018-08-25T02:17:28.195Z,8.67
2018-08-25T02:19:57.011Z,7.97
2018-08-25T02:22:25.711Z,8.90
2018-08-25T02:24:56.574Z,8.33
2018-08-25T02:27:25.329Z,8.50
2018-08-25T02:29:54.075Z,9.00
2018-08-25T02:32:22.763Z,9.33
2018-08-25T02:34:51.489Z,8.50
2018-08-25T02:37:20.188Z,8.63
2018-08-25T02:39:48.881Z,10.00
2018-08-25T02:42:17.667Z,9.03
2018-08-25T02:44:46.435Z,8.80
2018-08-25T02:47:15.150Z,9.90
2018-08-25T02:49:43.936Z,9.30
2018-08-25T02:52:12.625Z,9.23
2018-08-25T02:54:41.404Z,9.23
2018-08-25T02:57:10.211Z,9.77
2018-08-25T02:59:39.047Z,9.10
2018-08-25T03:02:07.787Z,8.83
2018-08-25T03:04:36.526Z,9.50
2018-08-25T03:07:05.369Z,9.00
2018-08-25T03:09:34.046Z,9.83
2018-08-25T03:12:02.800Z,9.57
2018-08-25T03:14:31.526Z,9.67
2018-08-25T03:17:00.335Z,9.83
2018-08-25T03:19:29.267Z,10.10
2018-08-25T03:21:58.153Z,9.80
2018-08-25T03:24:26.946Z,9.83
2018-08-25T03:26:55.794Z,10.13
2018-08-25T03:29:24.579Z,10.17
2018-08-25T03:31:53.371Z,9.23
2018-08-25T03:34:22.123Z,9.97
2018-08-25T03:36:50.826Z,9.67
2018-08-25T03:39:19.556Z,10.07
2018-08-25T03:41:48.268Z,9.77
2018-08-25T03:44:17.084Z,9.93
2018-08-25T03:46:45.885Z,9.97
2018-08-25T03:49:14.593Z,10.30
2018-08-25T03:51:43.470Z,10.80
2018-08-25T03:54:12.179Z,10.40
2018-08-25T03:56:40.972Z,10.20
2018-08-25T03:59:09.688Z,11.50
2018-08-25T04:01:38.510Z,10.70
2018-08-25T04:04:07.228Z,10.83
2018-08-25T04:06:35.962Z,10.77
2018-08-25T04:09:06.691Z,11.13
2018-08-25T04:11:35.497Z,11.30
2018-08-25T04:14:04.238Z,10.93
2018-08-25T04:16:32.952Z,10.97
2018-08-25T04:19:01.600Z,10.37
2018-08-25T04:21:30.491Z,11.27
2018-08-25T04:23:59.317Z,11.07
2018-08-25T04:26:28.076Z,10.47
2018-08-25T04:28:56.837Z,11.20
2018-08-25T04:31:25.648Z,11.77
2018-08-25T04:33:54.471Z,11.70
2018-08-25T04:36:23.299Z,11.23
2018-08-25T04:38:52.090Z,10.70
2018-08-25T04:41:20.952Z,11.43
2018-08-25T04:43:49.735Z,12.30
2018-08-25T04:46:18.492Z,11.73
2018-08-25T04:48:47.430Z,11.77
2018-08-25T04:51:16.922Z,12.83
2018-08-25T04:53:46.190Z,11.97
2018-08-25T04:56:15.905Z,12.03
2018-08-25T04:58:44.838Z,11.73
2018-08-25T05:01:13.611Z,12.33
2018-08-25T05:03:42.424Z,13.50
2018-08-25T05:06:11.242Z,12.27
2018-08-25T05:08:40.091Z,12.33
2018-08-25T05:11:09.358Z,11.57
2018-08-25T05:13:38.148Z,12.23
2018-08-25T05:16:06.993Z,11.57
2018-08-25T05:18:35.731Z,13.47
2018-08-25T05:21:04.581Z,13.00
2018-08-25T05:23:33.321Z,13.13
2018-08-25T05:26:02.164Z,11.90
2018-08-25T05:28:30.903Z,11.53
2018-08-25T05:30:59.614Z,11.37
2018-08-25T05:33:28.488Z,13.03
2018-08-25T05:35:57.290Z,12.60
2018-08-25T05:38:26.239Z,12.85
2018-08-25T05:40:55.701Z,12.07
2018-08-25T05:43:24.490Z,12.00
2018-08-25T05:45:53.331Z,12.70
2018-08-25T05:48:22.183Z,12.68
2018-08-25T05:50:51.046Z,12.73
2018-08-25T05:53:19.747Z,12.55
2018-08-25T05:55:48.503Z,13.15
2018-08-25T05:58:17.276Z,14.00
2018-08-25T06:00:46.076Z,12.98
2018-08-25T06:03:14.887Z,13.72
2018-08-25T06:05:43.645Z,13.80
2018-08-25T06:08:12.535Z,13.15
2018-08-25T06:10:41.343Z,12.37
2018-08-25T06:13:10.124Z,13.10
2018-08-25T06:15:38.850Z,13.78
2018-08-25T06:18:07.839Z,14.98
2018-08-25T06:20:36.678Z,13.88
2018-08-25T06:23:05.429Z,13.45
2018-08-25T06:25:34.253Z,13.88
2018-08-25T06:28:03.067Z,14.18
2018-08-25T06:30:31.802Z,14.07
2018-08-25T06:33:00.663Z,14.55
2018-08-25T06:35:29.430Z,16.80
2018-08-25T06:37:58.325Z,15.03
2018-08-25T06:40:27.024Z,14.20
2018-08-25T06:42:55.803Z,15.15
2018-08-25T06:45:24.675Z,14.60
2018-08-25T06:47:53.421Z,14.93
2018-08-25T06:50:22.259Z,15.03
2018-08-25T06:52:51.165Z,14.47
2018-08-25T06:55:20.119Z,14.98
2018-08-25T06:57:48.984Z,13.32
2018-08-25T07:00:17.779Z,13.45
2018-08-25T07:02:46.859Z,14.00
2018-08-25T07:05:15.755Z,13.93
2018-08-25T07:07:44.645Z,14.78
2018-08-25T07:10:13.484Z,14.53
2018-08-25T07:12:42.466Z,14.05
2018-08-25T07:15:11.237Z,14.93
2018-08-25T07:17:40.315Z,14.25
2018-08-25T07:20:09.011Z,14.05
2018-08-25T07:22:37.847Z,14.68
2018-08-25T07:25:07.290Z,13.88
2018-08-25T07:27:36.095Z,14.40
2018-08-25T07:30:06.476Z,14.78
2018-08-25T07:32:35.216Z,12.82
2018-08-25T07:35:04.277Z,13.10
2018-08-25T07:37:33.138Z,13.43
2018-08-25T07:40:01.980Z,14.20
2018-08-25T07:42:30.890Z,15.28
2018-08-25T07:44:59.683Z,15.32
2018-08-25T07:47:28.595Z,13.88
2018-08-25T07:49:57.478Z,14.60
2018-08-25T07:52:26.407Z,14.50
2018-08-25T07:54:55.188Z,15.43
2018-08-25T07:57:23.972Z,17.15
2018-08-25T07:59:52.797Z,14.90
2018-08-25T08:02:21.608Z,15.55
2018-08-25T08:04:50.494Z,16.02
2018-08-25T08:07:19.302Z,14.95
2018-08-25T08:09:48.207Z,17.00
2018-08-25T08:12:17.131Z,15.28
2018-08-25T08:14:45.960Z,15.13
2018-08-25T08:17:14.725Z,14.40
2018-08-25T08:19:43.442Z,14.78
2018-08-25T08:22:12.215Z,15.03
2018-08-25T08:24:41.107Z,16.02
2018-08-25T08:27:09.862Z,15.60
2018-08-25T08:29:38.667Z,14.63
2018-08-25T08:32:07.709Z,14.25
2018-08-25T08:34:37.015Z,14.47
2018-08-25T08:37:06.296Z,13.75
2018-08-25T08:39:35.575Z,13.85
2018-08-25T08:42:04.381Z,15.23
2018-08-25T08:44:33.297Z,13.93
2018-08-25T08:47:02.016Z,13.62
2018-08-25T08:49:30.835Z,12.43
2018-08-25T08:51:59.579Z,12.45
2018-08-25T08:54:28.402Z,14.20
2018-08-25T08:56:57.245Z,13.58
2018-08-25T08:59:26.063Z,14.18
2018-08-25T09:01:54.957Z,13.03
2018-08-25T09:04:23.848Z,13.08
2018-08-25T09:06:52.633Z,19.55
2018-08-25T09:09:21.285Z,13.13
2018-08-25T09:11:50.265Z,13.03
2018-08-25T09:14:18.995Z,13.95
2018-08-25T09:16:47.806Z,13.53
2018-08-25T09:19:16.654Z,13.43
2018-08-25T09:21:45.533Z,13.65
2018-08-25T09:24:14.234Z,13.32
2018-08-25T09:26:43.013Z,12.88
2018-08-25T09:29:11.695Z,13.30
2018-08-25T09:31:40.498Z,14.40
2018-08-25T09:34:09.152Z,14.28
2018-08-25T09:36:38.144Z,13.48
2018-08-25T09:39:09.475Z,13.70
2018-08-25T09:41:38.546Z,13.70
2018-08-25T09:44:07.350Z,13.40
2018-08-25T09:46:36.152Z,13.40
2018-08-25T09:49:04.945Z,13.85
2018-08-25T09:51:34.427Z,13.90
2018-08-25T09:54:03.381Z,14.70
2018-08-25T09:56:32.183Z,15.00
2018-08-25T09:59:01.285Z,13.72
2018-08-25T10:01:30.974Z,13.53
2018-08-25T10:04:00.049Z,12.82
2018-08-25T10:06:29.090Z,12.60
2018-08-25T10:08:57.925Z,12.37
2018-08-25T10:11:26.848Z,12.55
2018-08-25T10:13:55.575Z,12.73
2018-08-25T10:16:24.631Z,12.45
2018-08-25T10:18:53.439Z,12.63
2018-08-25T10:21:22.296Z,11.85
2018-08-25T10:23:51.066Z,11.63
2018-08-25T10:26:19.912Z,11.68
2018-08-25T10:28:48.745Z,12.73
2018-08-25T10:31:17.552Z,11.90
2018-08-25T10:33:46.339Z,13.05
2018-08-25T10:36:15.187Z,11.10
2018-08-25T10:38:45.407Z,11.50
2018-08-25T10:41:14.391Z,12.10
2018-08-25T10:43:43.323Z,11.20
2018-08-25T10:46:12.319Z,11.55
2018-08-25T10:48:41.171Z,11.10
2018-08-25T10:51:09.970Z,10.72
2018-08-25T10:53:39.785Z,11.93
2018-08-25T10:56:08.818Z,11.53
2018-08-25T10:58:37.667Z,12.75
2018-08-25T11:01:06.635Z,12.75
2018-08-25T11:03:35.474Z,12.33
2018-08-25T11:06:04.449Z,12.80
2018-08-25T11:08:33.309Z,11.05
2018-08-25T11:11:02.273Z,12.88
2018-08-25T11:13:31.258Z,12.88
2018-08-25T11:16:00.043Z,12.37
2018-08-25T11:18:28.874Z,10.90
2018-08-25T11:20:57.926Z,10.15
2018-08-25T11:23:26.719Z,9.70
2018-08-25T11:25:55.517Z,10.03
2018-08-25T11:28:24.370Z,10.40
2018-08-25T11:30:53.200Z,11.48
2018-08-25T11:33:21.996Z,11.63
2018-08-25T11:35:50.821Z,10.65
2018-08-25T11:38:19.659Z,11.48
2018-08-25T11:40:48.495Z,10.18
2018-08-25T11:43:17.254Z,10.72
2018-08-25T11:45:46.001Z,10.75
2018-08-25T11:48:14.731Z,9.95
2018-08-25T11:50:43.622Z,10.15
2018-08-25T11:53:12.504Z,10.45
2018-08-25T11:55:41.310Z,11.25
2018-08-25T11:58:10.050Z,10.78
2018-08-25T12:00:38.837Z,9.95
2018-08-25T12:03:07.528Z,10.43
2018-08-25T12:05:36.227Z,10.38
2018-08-25T12:08:05.012Z,12.55
2018-08-25T12:10:33.788Z,13.55
2018-08-25T12:13:02.530Z,12.58
2018-08-25T12:15:31.288Z,12.53
2018-08-25T12:18:00.176Z,12.07
2018-08-25T12:20:28.944Z,10.68
2018-08-25T12:22:57.674Z,11.68
2018-08-25T12:25:26.465Z,10.75
2018-08-25T12:27:55.277Z,10.78
2018-08-25T12:30:24.317Z,10.35
2018-08-25T12:32:53.099Z,10.55
2018-08-25T12:35:36.694Z,11.25
2018-08-25T12:38:05.769Z,11.45
2018-08-25T12:40:34.478Z,11.53
2018-08-25T12:43:03.335Z,10.75
2018-08-25T12:45:32.543Z,11.25
2018-08-25T12:48:01.313Z,11.65
2018-08-25T12:50:30.093Z,11.25
2018-08-25T12:52:58.815Z,11.70
2018-08-25T12:55:27.585Z,11.38
2018-08-25T12:57:56.267Z,10.68
2018-08-25T13:00:24.977Z,10.78
2018-08-25T13:02:53.682Z,11.15
2018-08-25T13:05:22.405Z,9.95
2018-08-25T13:07:51.043Z,9.98
2018-08-25T13:10:19.756Z,9.95
2018-08-25T13:12:48.360Z,9.38
2018-08-25T13:15:17.030Z,10.43
2018-08-25T13:17:45.747Z,10.53
2018-08-25T13:20:14.432Z,9.78
2018-08-25T13:22:43.061Z,10.13
2018-08-25T13:25:11.703Z,9.68
2018-08-25T13:27:40.398Z,10.13
2018-08-25T13:30:09.198Z,9.80
2018-08-25T13:32:37.862Z,10.28
2018-08-25T13:35:06.756Z,10.50
2018-08-25T13:37:35.692Z,10.80
2018-08-25T13:40:04.632Z,10.13
2018-08-25T13:42:33.211Z,10.13
2018-08-25T13:45:01.975Z,9.65
2018-08-25T13:47:30.718Z,10.10
2018-08-25T13:49:59.358Z,10.05
2018-08-25T13:52:28.131Z,9.70
2018-08-25T13:54:56.782Z,9.50
2018-08-25T13:57:25.495Z,10.15
2018-08-25T13:59:54.224Z,9.83
2018-08-25T14:02:22.901Z,9.83
2018-08-25T14:04:51.685Z,9.05
2018-08-25T14:07:20.625Z,9.35
2018-08-25T14:09:50.015Z,9.50
2018-08-25T14:12:18.673Z,9.25
2018-08-25T14:14:47.464Z,9.73
2018-08-25T14:17:16.114Z,10.10
2018-08-25T14:19:45.398Z,10.72
2018-08-25T14:22:14.081Z,10.53
2018-08-25T14:24:42.792Z,12.70
2018-08-25T14:27:11.466Z,11.20
2018-08-25T14:29:40.178Z,11.20
2018-08-25T14:32:08.864Z,10.03
2018-08-25T14:34:37.631Z,9.90
2018-08-25T14:37:06.422Z,10.60
2018-08-25T14:39:35.147Z,10.30
2018-08-25T14:42:03.901Z,10.13
2018-08-25T14:44:32.605Z,9.73
2018-08-25T14:47:01.365Z,10.90
2018-08-25T14:49:30.034Z,10.40
2018-08-25T14:51:58.745Z,9.53
2018-08-25T14:54:27.472Z,10.47
2018-08-25T14:56:56.171Z,10.40
2018-08-25T14:59:25.138Z,11.08
2018-08-25T15:01:53.809Z,10.50
2018-08-25T15:04:23.386Z,10.00
2018-08-25T15:06:52.021Z,9.90
2018-08-25T15:09:20.683Z,9.65
2018-08-25T15:11:49.433Z,9.88
2018-08-25T15:14:18.106Z,10.32
2018-08-25T15:16:46.746Z,10.82
2018-08-25T15:19:15.427Z,9.43
2018-08-25T15:21:44.159Z,10.65
2018-08-25T15:24:12.914Z,10.32
2018-08-25T15:26:41.690Z,11.50
2018-08-25T15:29:10.412Z,10.08
2018-08-25T15:31:39.173Z,11.22
2018-08-25T15:34:08.804Z,11.55
2018-08-25T15:36:37.679Z,11.43
2018-08-25T15:39:10.579Z,12.80
2018-08-25T15:41:39.449Z,11.78
2018-08-25T15:44:08.166Z,12.55
2018-08-25T15:46:36.894Z,11.25
2018-08-25T15:49:05.990Z,14.58
2018-08-25T15:51:34.712Z,15.13
2018-08-25T15:54:03.514Z,13.50
2018-08-25T15:56:32.261Z,11.85
2018-08-25T15:59:01.083Z,13.85
2018-08-25T16:01:29.847Z,12.93
2018-08-25T16:03:59.176Z,12.40
2018-08-25T16:06:28.024Z,11.35
2018-08-25T16:08:56.846Z,10.75
2018-08-25T16:11:25.645Z,11.57
2018-08-25T16:13:54.539Z,11.17
2018-08-25T16:16:23.343Z,10.30
2018-08-25T16:18:52.231Z,10.97
2018-08-25T16:21:21.241Z,10.43
2018-08-25T16:23:50.244Z,10.67
2018-08-25T16:26:19.215Z,10.83
2018-08-25T16:28:48.011Z,11.37
2018-08-25T16:31:16.819Z,10.30
2018-08-25T16:33:45.556Z,9.97
2018-08-25T16:36:14.355Z,10.83
2018-08-25T16:38:43.247Z,10.23
2018-08-25T16:41:12.064Z,10.60
2018-08-25T16:43:40.854Z,10.73
2018-08-25T16:46:09.653Z,10.93
2018-08-25T16:48:38.369Z,12.13
2018-08-25T16:51:07.633Z,11.37
2018-08-25T16:53:37.756Z,12.10
2018-08-25T16:56:06.881Z,12.00
2018-08-25T16:58:35.531Z,10.23
2018-08-25T17:01:04.329Z,11.23
2018-08-25T17:03:33.135Z,10.13
2018-08-25T17:06:01.878Z,10.13
2018-08-25T17:08:30.568Z,11.17
2018-08-25T17:10:59.359Z,11.50
2018-08-25T17:13:28.113Z,9.20
2018-08-25T17:15:56.939Z,9.70
2018-08-25T17:18:25.621Z,10.13
2018-08-25T17:20:54.340Z,10.60
2018-08-25T17:23:23.063Z,9.37
2018-08-25T17:25:51.743Z,9.37
2018-08-25T17:28:20.438Z,9.47
2018-08-25T17:30:49.086Z,9.83
2018-08-25T17:33:17.809Z,10.90
2018-08-25T17:35:46.521Z,10.23
2018-08-25T17:38:15.275Z,9.50
2018-08-25T17:40:43.959Z,9.40
2018-08-25T17:43:12.687Z,9.40
2018-08-25T17:45:41.890Z,9.33
2018-08-25T17:48:10.567Z,8.90
2018-08-25T17:50:39.373Z,8.93
2018-08-25T17:53:08.136Z,9.20
2018-08-25T17:55:36.857Z,10.00
2018-08-25T17:58:05.674Z,10.20
2018-08-25T18:00:34.376Z,10.57
2018-08-25T18:03:03.075Z,10.30
2018-08-25T18:05:31.818Z,9.83
2018-08-25T18:08:00.552Z,9.67
2018-08-25T18:10:29.190Z,9.80
2018-08-25T18:12:57.952Z,10.00
2018-08-25T18:15:26.660Z,10.37
2018-08-25T18:17:55.330Z,11.40
2018-08-25T18:20:23.995Z,10.70
2018-08-25T18:22:52.716Z,10.40
2018-08-25T18:25:21.975Z,11.30
2018-08-25T18:27:50.671Z,10.70
2018-08-25T18:30:19.410Z,10.50
2018-08-25T18:32:48.137Z,11.30
2018-08-25T18:35:16.875Z,10.80
2018-08-25T18:37:45.821Z,11.17
2018-08-25T18:40:14.496Z,12.83
2018-08-25T18:42:43.188Z,20.10
2018-08-25T18:45:11.875Z,19.07
2018-08-25T18:47:40.579Z,19.33
2018-08-25T18:50:09.343Z,17.57
2018-08-25T18:52:38.028Z,19.03
2018-08-25T18:55:06.913Z,15.90
2018-08-25T18:57:35.595Z,17.00
2018-08-25T19:00:05.371Z,12.90
2018-08-25T19:02:34.048Z,17.63
2018-08-25T19:05:02.727Z,15.20
2018-08-25T19:07:31.592Z,12.40
2018-08-25T19:10:00.339Z,13.93
2018-08-25T19:12:29.004Z,12.30
2018-08-25T19:14:58.210Z,12.93
2018-08-25T19:17:26.885Z,11.67
2018-08-25T19:19:55.607Z,12.23
2018-08-25T19:22:24.347Z,11.93
2018-08-25T19:24:52.995Z,11.77
2018-08-25T19:27:21.752Z,12.40
2018-08-25T19:29:50.518Z,11.80
2018-08-25T19:32:19.218Z,12.43
2018-08-25T19:34:47.880Z,11.73
2018-08-25T19:37:16.563Z,11.63
2018-08-25T19:39:45.210Z,11.67
2018-08-25T19:42:13.974Z,11.17
2018-08-25T19:44:42.676Z,11.40
2018-08-25T19:47:11.668Z,11.30
2018-08-25T19:49:40.551Z,10.37
2018-08-25T19:52:09.611Z,11.50
2018-08-25T19:54:38.262Z,11.00
2018-08-25T19:57:06.985Z,10.77
2018-08-25T19:59:36.006Z,10.87
2018-08-25T20:02:04.714Z,11.77
2018-08-25T20:04:33.406Z,12.30
2018-08-25T20:07:02.035Z,11.63
2018-08-25T20:09:30.920Z,13.07
2018-08-25T20:11:59.506Z,11.80
2018-08-25T20:14:28.233Z,12.60
2018-08-25T20:16:56.934Z,11.17
2018-08-25T20:19:25.656Z,11.33
2018-08-25T20:21:54.286Z,12.13
2018-08-25T20:24:22.939Z,11.70
2018-08-25T20:26:51.593Z,11.70
2018-08-25T20:29:20.403Z,10.60
2018-08-25T20:31:49.123Z,11.40
2018-08-25T20:34:23.202Z,11.37
2018-08-25T20:36:55.269Z,11.70
2018-08-25T20:39:28.452Z,11.63
2018-08-25T20:41:57.396Z,10.90
2018-08-25T20:44:28.946Z,10.50
2018-08-25T20:46:58.067Z,11.37
2018-08-25T20:49:27.607Z,11.80
2018-08-25T20:51:56.355Z,12.47
2018-08-25T20:54:25.380Z,11.27
2018-08-25T20:56:54.193Z,10.97
2018-08-25T20:59:23.332Z,11.10
2018-08-25T21:01:52.074Z,11.47
2018-08-25T21:04:20.915Z,10.60
2018-08-25T21:06:49.722Z,10.47
2018-08-25T21:09:18.550Z,10.40
2018-08-25T21:11:47.389Z,11.00
2018-08-25T21:14:16.307Z,10.93
2018-08-25T21:16:45.167Z,11.47
2018-08-25T21:19:13.906Z,11.73
2018-08-25T21:21:42.688Z,11.70
2018-08-25T21:24:14.849Z,11.67
2018-08-25T21:26:43.641Z,10.93
2018-08-25T21:29:12.357Z,11.17
2018-08-25T21:31:41.057Z,11.97
2018-08-25T21:34:09.726Z,10.90
2018-08-25T21:36:38.438Z,11.87
2018-08-25T21:39:10.224Z,11.87
2018-08-25T21:41:38.986Z,11.57
2018-08-25T21:44:07.864Z,12.17
2018-08-25T21:46:36.610Z,11.53
2018-08-25T21:49:05.357Z,11.40
2018-08-25T21:51:34.374Z,11.90
2018-08-25T21:54:03.111Z,12.63
2018-08-25T21:56:31.783Z,12.30
2018-08-25T21:59:00.517Z,11.97
2018-08-25T22:01:33.289Z,11.90
2018-08-25T22:04:02.033Z,11.83
2018-08-25T22:06:30.802Z,11.00
2018-08-25T22:08:59.749Z,11.83
2018-08-25T22:11:28.475Z,12.87
2018-08-25T22:13:57.179Z,13.13
2018-08-25T22:16:25.885Z,13.07
2018-08-25T22:18:54.554Z,13.03
2018-08-25T22:21:23.519Z,13.17
2018-08-25T22:23:52.189Z,13.40
2018-08-25T22:26:20.942Z,13.83
2018-08-25T22:28:49.743Z,12.73
2018-08-25T22:31:18.515Z,14.37
2018-08-25T22:33:47.502Z,13.07
2018-08-25T22:36:16.207Z,13.73
2018-08-25T22:38:44.987Z,13.37
2018-08-25T22:41:13.723Z,15.80
2018-08-25T22:43:42.536Z,16.70
2018-08-25T22:46:11.356Z,18.40
2018-08-25T22:48:40.716Z,16.77
2018-08-25T22:51:09.603Z,16.40
2018-08-25T22:53:38.457Z,16.03
2018-08-25T22:56:07.324Z,16.50
2018-08-25T22:58:36.243Z,16.07
2018-08-25T23:01:04.978Z,15.43
2018-08-25T23:03:33.709Z,15.50
2018-08-25T23:06:02.488Z,14.70
2018-08-25T23:08:31.293Z,15.17
2018-08-25T23:11:00.014Z,16.20
2018-08-25T23:13:28.724Z,16.47
2018-08-25T23:15:57.455Z,16.90
2018-08-25T23:18:26.247Z,16.27
2018-08-25T23:20:54.951Z,15.90
2018-08-25T23:23:23.635Z,14.27
2018-08-25T23:25:52.313Z,15.07
2018-08-25T23:28:20.987Z,15.13
2018-08-25T23:30:49.686Z,14.70
2018-08-25T23:33:18.325Z,14.67
2018-08-25T23:35:47.047Z,14.03
2018-08-25T23:38:15.795Z,14.20
2018-08-25T23:40:44.614Z,15.00
2018-08-25T23:43:13.291Z,14.03
2018-08-25T23:45:42.048Z,14.30
2018-08-25T23:48:10.792Z,14.27
2018-08-25T23:50:39.540Z,15.50
2018-08-25T23:53:08.317Z,14.90
2018-08-25T23:55:37.103Z,15.67
2018-08-25T23:58:05.849Z,16.13
